Terminal Aerodrome Forecast
Issued by NWS

Current Version | Previous Version | Text Only | Print | Product List | Glossary Off
Versions: 1 2 3 4 5 6 7 8 9 10 11 12 13 14 15 16 17 18

000
FTUS41 KILN 181720
TAFLUK
TAF
KLUK 181720Z 1818/1918 19007KT P6SM SKC
     FM190700 19003KT P6SM FEW250
      TEMPO 1907/1911 3SM BR SCT003
     FM191300 21007KT P6SM SCT250=

USA.gov is the U.S. government's official web portal to all federal, state and local government web resources and services.